Time;durP1;ratioP1;P1;durP2;ratioP2;P2;SDS_P1;SDS_P2;PMS_P1;PMS_P2;Temp;Humidity;BMP_temperature;BMP_pressure;BME280_temperature;BME280_humidity;BME280_pressure;Samples;Min_cycle;Max_cycle;Signal;HPM_P1;HPM_P2
2022/04/06 00:01:19;;;;;;;30.80;11.73;;;;;;;8.22;100.00;100368.50;5062336;28;20025;-66
2022/04/06 00:03:44;;;;;;;31.33;11.55;;;;;;;8.18;100.00;100359.72;5067908;28;20374;-66
2022/04/06 00:06:09;;;;;;;29.88;11.80;;;;;;;8.18;100.00;100361.44;5064643;28;20021;-66
2022/04/06 00:08:35;;;;;;;31.48;11.55;;;;;;;8.15;100.00;100358.81;5067599;28;20502;-66
2022/04/06 00:11:00;;;;;;;29.83;10.75;;;;;;;8.18;100.00;100349.19;5065483;28;20032;-66
2022/04/06 00:13:26;;;;;;;31.50;11.38;;;;;;;8.20;100.00;100350.06;5065960;28;20025;-66
2022/04/06 00:15:51;;;;;;;31.00;11.60;;;;;;;8.15;100.00;100351.78;5066954;28;20116;-66
2022/04/06 00:18:16;;;;;;;29.77;11.10;;;;;;;8.16;100.00;100348.28;5046554;28;20043;-75
2022/04/06 00:20:42;;;;;;;28.92;10.73;;;;;;;8.14;100.00;100346.50;5067710;28;20031;-73
2022/04/06 00:23:08;;;;;;;29.17;11.60;;;;;;;8.10;100.00;100348.25;5046361;28;20068;-74
2022/04/06 00:25:34;;;;;;;30.25;10.57;;;;;;;8.09;100.00;100340.34;5066971;28;20066;-74
2022/04/06 00:27:59;;;;;;;32.13;11.23;;;;;;;8.11;100.00;100343.84;5065373;28;20021;-75
2022/04/06 00:30:24;;;;;;;30.85;11.38;;;;;;;8.07;100.00;100337.69;5065876;28;20036;-74
2022/04/06 00:32:50;;;;;;;26.63;10.07;;;;;;;8.10;100.00;100339.47;5066800;28;20059;-74
2022/04/06 00:35:34;;;;;;;31.85;11.38;;;;;;;8.12;100.00;100340.34;5064483;28;20028;-74
2022/04/06 00:38:03;;;;;;;33.35;11.50;;;;;;;8.10;100.00;100336.84;5065777;28;20028;-74
2022/04/06 00:40:29;;;;;;;30.33;10.75;;;;;;;8.08;100.00;100330.69;5066008;28;20048;-75
2022/04/06 00:42:55;;;;;;;28.33;9.98;;;;;;;8.11;100.00;100341.22;5066085;28;20051;-74
2022/04/06 00:45:24;;;;;;;28.80;10.18;;;;;;;8.08;100.00;100349.09;5064719;28;20464;-75
2022/04/06 00:47:50;;;;;;;27.58;10.20;;;;;;;8.08;100.00;100328.03;5066863;28;20025;-74
2022/04/06 00:50:17;;;;;;;29.88;10.70;;;;;;;8.09;100.00;100319.28;5063876;28;20079;-73
2022/04/06 00:52:42;;;;;;;33.20;10.27;;;;;;;8.06;100.00;100324.53;5074042;28;20403;-66
2022/04/06 00:55:09;;;;;;;28.00;9.95;;;;;;;8.06;100.00;100335.06;5078099;28;20048;-67
2022/04/06 00:57:35;;;;;;;26.77;9.82;;;;;;;8.01;100.00;100328.00;5082706;28;20029;-65
2022/04/06 01:00:03;;;;;;;26.20;9.80;;;;;;;8.07;100.00;100328.91;5080939;28;20024;-65
2022/04/06 01:02:28;;;;;;;27.63;9.57;;;;;;;8.03;100.00;100328.88;5072533;28;20080;-65
2022/04/06 01:04:53;;;;;;;28.13;9.70;;;;;;;8.01;100.00;100312.22;5067248;28;20060;-65
2022/04/06 01:07:20;;;;;;;27.70;9.13;;;;;;;8.03;100.00;100315.72;5046329;28;20033;-65
2022/04/06 01:09:46;;;;;;;27.00;10.00;;;;;;;8.02;100.00;100313.09;5066887;28;20032;-65
2022/04/06 01:12:12;;;;;;;27.70;9.15;;;;;;;8.01;100.00;100312.22;5062742;28;20036;-65
2022/04/06 01:14:38;;;;;;;28.98;9.77;;;;;;;7.98;100.00;100320.09;5066344;28;20040;-66
2022/04/06 01:17:07;;;;;;;29.02;9.30;;;;;;;7.99;100.00;100320.97;5064021;28;20021;-66
2022/04/06 01:19:39;;;;;;;27.05;8.60;;;;;;;7.99;100.00;100316.59;5065645;28;20021;-66
2022/04/06 01:22:09;;;;;;;26.40;8.88;;;;;;;8.07;100.00;100298.22;5063967;28;20046;-66
2022/04/06 01:24:35;;;;;;;28.50;9.02;;;;;;;7.98;100.00;100314.84;5065863;28;20017;-66
2022/04/06 01:27:01;;;;;;;25.88;8.90;;;;;;;7.95;100.00;100312.19;5064367;28;20490;-66
2022/04/06 01:29:27;;;;;;;26.27;8.48;;;;;;;8.00;100.00;100306.94;5064490;28;20382;-66
2022/04/06 01:31:52;;;;;;;28.75;8.80;;;;;;;7.97;100.00;100310.44;5065889;28;20035;-66
2022/04/06 01:34:18;;;;;;;28.17;8.65;;;;;;;7.96;100.00;100307.78;5063197;28;20024;-66
2022/04/06 01:36:43;;;;;;;26.20;8.25;;;;;;;7.98;100.00;100303.41;5066219;28;20029;-66
2022/04/06 01:39:09;;;;;;;27.40;7.93;;;;;;;7.99;100.00;100299.91;5063332;28;20017;-66
2022/04/06 01:41:34;;;;;;;27.40;7.88;;;;;;;7.98;100.00;100301.66;5065572;28;20029;-66
2022/04/06 01:44:00;;;;;;;27.20;8.00;;;;;;;7.97;100.00;100292.00;5064536;28;20107;-66
2022/04/06 01:46:26;;;;;;;25.55;7.60;;;;;;;7.92;100.00;100299.00;5064212;28;20489;-66
2022/04/06 01:54:24;;;;;;;28.15;8.13;;;;;;;7.96;100.00;100298.13;5061354;28;20067;-66
2022/04/06 01:56:49;;;;;;;27.25;7.63;;;;;;;7.95;100.00;100296.38;5065565;28;20459;-66
2022/04/06 01:59:15;;;;;;;26.77;7.68;;;;;;;7.98;100.00;100288.50;5062434;28;20025;-65
2022/04/06 02:01:41;;;;;;;25.25;7.57;;;;;;;7.98;100.00;100296.41;5065777;28;20025;-65
2022/04/06 02:04:16;;;;;;;25.77;7.07;;;;;;;8.06;100.00;100290.31;5062947;28;20033;-65
2022/04/06 02:06:41;;;;;;;25.27;7.13;;;;;;;7.97;100.00;100289.38;5058215;28;20021;-65
2022/04/06 02:09:08;;;;;;;25.77;7.40;;;;;;;7.97;100.00;100289.38;5065015;28;20032;-66
2022/04/06 02:11:34;;;;;;;25.95;7.22;;;;;;;7.96;100.00;100295.50;5063066;28;20025;-66
2022/04/06 02:14:00;;;;;;;24.65;6.75;;;;;;;7.97;100.00;100281.47;5064253;28;20032;-66
2022/04/06 02:16:25;;;;;;;22.85;6.68;;;;;;;7.91;100.00;100273.53;5064319;28;20466;-66
2022/04/06 02:18:50;;;;;;;27.20;6.75;;;;;;;7.85;100.00;100274.38;5062903;28;20021;-65
2022/04/06 02:21:16;;;;;;;26.02;7.07;;;;;;;7.88;100.00;100268.28;5065256;28;20031;-65
2022/04/06 02:23:41;;;;;;;25.88;7.18;;;;;;;7.85;100.00;100286.69;5061115;28;20052;-66
2022/04/06 02:26:06;;;;;;;25.17;6.95;;;;;;;7.82;100.00;100271.75;5064741;28;20520;-66
2022/04/06 02:28:32;;;;;;;23.90;6.30;;;;;;;7.93;100.00;100274.44;5063034;28;20091;-66
2022/04/06 02:30:57;;;;;;;26.85;7.43;;;;;;;7.85;100.00;100273.53;5063274;28;20021;-66
2022/04/06 02:33:23;;;;;;;24.20;6.45;;;;;;;7.82;100.00;100266.47;5064364;28;20056;-66
2022/04/06 02:35:48;;;;;;;22.95;6.88;;;;;;;7.83;100.00;100264.72;5062102;28;20029;-66
2022/04/06 02:38:13;;;;;;;24.33;6.75;;;;;;;7.81;100.00;100271.72;5065068;28;20031;-76
2022/04/06 02:40:39;;;;;;;25.25;6.90;;;;;;;7.76;100.00;100268.19;5062368;28;20087;-75
2022/04/06 02:43:04;;;;;;;26.42;6.80;;;;;;;7.74;100.00;100265.53;5064180;28;20300;-75
2022/04/06 02:45:30;;;;;;;24.50;6.20;;;;;;;7.70;100.00;100265.50;5062986;28;20035;-70
2022/04/06 02:47:55;;;;;;;23.05;6.32;;;;;;;7.70;100.00;100268.13;5063106;28;20025;-76
2022/04/06 02:50:21;;;;;;;25.63;6.60;;;;;;;7.69;100.00;100262.00;5064381;28;20025;-75
2022/04/06 02:52:47;;;;;;;27.73;6.30;;;;;;;7.73;100.00;100257.63;5061729;28;20017;-75
2022/04/06 02:55:13;;;;;;;26.35;6.72;;;;;;;7.67;100.00;100259.38;5064642;28;20101;-75
2022/04/06 02:57:39;;;;;;;25.15;6.43;;;;;;;7.66;100.00;100247.06;5061732;28;20021;-75
2022/04/06 03:00:05;;;;;;;24.42;6.13;;;;;;;7.62;100.00;100252.31;5063928;28;20476;-75
2022/04/06 03:02:30;;;;;;;23.90;6.35;;;;;;;7.57;100.00;100248.75;5062735;28;20024;-75
2022/04/06 03:04:56;;;;;;;22.63;5.95;;;;;;;7.58;100.00;100263.69;5028037;28;20471;-75
2022/04/06 03:07:21;;;;;;;24.67;6.22;;;;;;;7.58;100.00;100242.63;5064430;28;20036;-75
2022/04/06 03:09:47;;;;;;;24.88;6.15;;;;;;;7.57;100.00;100240.88;5061205;28;20052;-75
2022/04/06 03:12:12;;;;;;;23.23;6.40;;;;;;;7.56;100.00;100237.38;5064650;28;20033;-76
2022/04/06 03:14:38;;;;;;;22.67;6.28;;;;;;;7.52;100.00;100242.59;5061741;28;20476;-74
2022/04/06 03:17:03;;;;;;;23.48;5.70;;;;;;;7.57;100.00;100240.88;5063403;28;20116;-76
2022/04/06 03:19:29;;;;;;;23.33;5.80;;;;;;;7.57;100.00;100228.63;5063315;28;20021;-66
2022/04/06 03:21:54;;;;;;;23.52;5.75;;;;;;;7.55;100.00;100227.69;5044387;28;20064;-66
2022/04/06 03:24:20;;;;;;;22.67;5.78;;;;;;;7.57;100.00;100231.25;5065808;28;20124;-66
2022/04/06 03:26:45;;;;;;;23.02;5.82;;;;;;;7.57;100.00;100223.34;5063613;28;20430;-76
2022/04/06 03:29:10;;;;;;;21.38;5.53;;;;;;;7.56;100.00;100224.22;5072504;28;20021;-74
2022/04/06 03:31:37;;;;;;;23.02;5.80;;;;;;;7.57;100.00;100222.44;5066810;28;20024;-70
2022/04/06 03:34:03;;;;;;;24.52;6.00;;;;;;;7.55;100.00;100216.31;5085726;28;20021;-67
2022/04/06 03:36:28;;;;;;;22.05;5.30;;;;;;;7.55;100.00;100208.41;5081229;28;20040;-70
2022/04/06 03:38:54;;;;;;;24.35;5.80;;;;;;;7.54;100.00;100210.16;5080797;28;20029;-68
2022/04/06 03:41:19;;;;;;;22.17;5.07;;;;;;;7.59;100.00;100207.56;5065112;28;20076;-71
2022/04/06 03:43:44;;;;;;;21.52;5.18;;;;;;;7.58;100.00;100200.53;5079872;28;20025;-76
2022/04/06 03:46:10;;;;;;;24.50;5.72;;;;;;;7.56;100.00;100202.25;5074032;28;20036;-76
2022/04/06 03:48:35;;;;;;;20.75;5.13;;;;;;;7.54;100.00;100188.25;5071907;28;20451;-80
2022/04/06 03:51:01;;;;;;;22.92;5.30;;;;;;;7.56;100.00;100192.66;5078969;28;20036;-76
2022/04/06 03:53:26;;;;;;;22.05;4.95;;;;;;;7.58;100.00;100196.16;5083882;28;20009;-77
2022/04/06 03:55:51;;;;;;;20.88;5.20;;;;;;;7.56;100.00;100200.53;5084442;28;20052;-68
2022/04/06 03:58:17;;;;;;;22.98;4.97;;;;;;;7.62;100.00;100192.69;5087507;28;20033;-68
2022/04/06 04:00:43;;;;;;;22.33;5.13;;;;;;;7.60;100.00;100193.53;5079734;28;20017;-70
2022/04/06 04:03:09;;;;;;;20.75;4.78;;;;;;;7.59;100.00;100189.16;5086363;28;20028;-66
2022/04/06 04:05:35;;;;;;;21.95;4.82;;;;;;;7.59;100.00;100197.06;5084334;28;20029;-66
2022/04/06 04:08:00;;;;;;;20.90;4.65;;;;;;;7.57;100.00;100201.41;5084843;28;20011;-67
2022/04/06 04:10:25;;;;;;;22.30;4.70;;;;;;;7.57;100.00;100194.41;5085199;28;20084;-66
2022/04/06 04:12:51;;;;;;;19.15;4.63;;;;;;;7.62;100.00;100194.44;5082679;28;20036;-66
2022/04/06 04:15:16;;;;;;;21.90;4.70;;;;;;;7.66;100.00;100189.19;5086308;28;20020;-66
2022/04/06 04:17:41;;;;;;;22.55;4.93;;;;;;;7.56;100.00;100197.91;5079108;28;20105;-66
2022/04/06 04:20:07;;;;;;;22.83;4.88;;;;;;;7.56;100.00;100190.00;5072157;28;20024;-66
2022/04/06 04:22:33;;;;;;;19.48;4.50;;;;;;;7.51;100.00;100196.97;5062916;28;20522;-66
2022/04/06 04:24:58;;;;;;;21.10;4.93;;;;;;;7.61;100.00;100185.66;5062494;28;20060;-66
2022/04/06 04:27:23;;;;;;;22.15;5.13;;;;;;;7.64;100.00;100185.66;5063537;28;20048;-66
2022/04/06 04:29:49;;;;;;;21.35;5.32;;;;;;;7.59;100.00;100181.28;5061255;28;20025;-65
2022/04/06 04:32:17;;;;;;;22.95;5.63;;;;;;;7.61;100.00;100190.03;5064084;28;20402;-65
2022/04/06 04:34:43;;;;;;;26.60;6.28;;;;;;;7.60;100.00;100172.47;5060580;28;20082;-65
2022/04/06 04:37:09;;;;;;;24.23;6.13;;;;;;;7.63;100.00;100181.28;5063812;28;20063;-65
2022/04/06 04:39:34;;;;;;;24.88;6.70;;;;;;;7.61;100.00;100169.00;5061734;28;20439;-65
2022/04/06 04:41:59;;;;;;;25.73;6.30;;;;;;;7.62;100.00;100171.63;5061746;28;20025;-65
2022/04/06 04:44:25;;;;;;;24.42;7.15;;;;;;;7.65;100.00;100179.53;5063025;28;20021;-65
2022/04/06 04:46:50;;;;;;;27.23;7.18;;;;;;;7.65;100.00;100176.91;5060973;28;20460;-65
2022/04/06 04:49:16;;;;;;;26.48;7.30;;;;;;;7.63;100.00;100168.13;5067213;28;20028;-65
2022/04/06 04:51:41;;;;;;;24.67;7.28;;;;;;;7.63;100.00;100161.97;5064225;28;20029;-65
2022/04/06 04:54:06;;;;;;;25.73;7.80;;;;;;;7.72;100.00;100177.84;5066293;28;20053;-65
2022/04/06 04:56:33;;;;;;;26.55;8.25;;;;;;;7.72;100.00;100161.16;5065194;28;20037;-65
2022/04/06 04:58:59;;;;;;;27.63;8.02;;;;;;;7.65;100.00;100170.78;5047308;28;20108;-65
2022/04/06 05:01:25;;;;;;;26.27;7.95;;;;;;;7.64;100.00;100154.09;5066314;28;20103;-65
2022/04/06 05:03:50;;;;;;;25.33;8.27;;;;;;;7.66;100.00;100157.63;5063978;28;20450;-65
2022/04/06 05:06:16;;;;;;;24.67;8.30;;;;;;;7.70;100.00;100160.28;5067256;28;20086;-65
2022/04/06 05:08:41;;;;;;;27.40;8.43;;;;;;;7.66;100.00;100147.09;5063590;28;20025;-65
2022/04/06 05:11:06;;;;;;;27.98;8.73;;;;;;;7.66;100.00;100155.00;5066145;28;20060;-65
2022/04/06 05:13:32;;;;;;;27.35;8.77;;;;;;;7.63;100.00;100152.34;5065059;28;20059;-65
2022/04/06 05:15:58;;;;;;;26.42;8.60;;;;;;;7.66;100.00;100155.00;5064344;28;20068;-65
2022/04/06 05:18:23;;;;;;;26.52;8.38;;;;;;;7.66;100.00;100157.63;5066335;28;20032;-65
2022/04/06 05:20:49;;;;;;;24.88;7.78;;;;;;;7.74;100.00;100154.16;5063413;28;20051;-65
2022/04/06 05:23:15;;;;;;;26.10;8.38;;;;;;;7.71;100.00;100149.75;5066685;28;20025;-65
2022/04/06 05:25:41;;;;;;;24.33;7.50;;;;;;;7.70;100.00;100152.38;5063643;28;20056;-65
2022/04/06 05:28:08;;;;;;;24.02;7.20;;;;;;;7.81;100.00;100140.16;5065303;28;20056;-65
2022/04/06 05:30:34;;;;;;;26.30;7.60;;;;;;;7.74;100.00;100147.13;5064511;28;20368;-65
2022/04/06 05:32:59;;;;;;;25.50;7.40;;;;;;;7.70;100.00;100149.75;5064745;28;20025;-65
2022/04/06 05:35:26;;;;;;;23.65;6.63;;;;;;;7.68;100.00;100153.25;5056316;28;20041;-66
2022/04/06 05:37:52;;;;;;;24.23;6.88;;;;;;;7.77;100.00;100155.03;5056361;28;20116;-66
2022/04/06 05:40:19;;;;;;;23.95;7.03;;;;;;;7.75;100.00;100162.06;5056990;28;20115;-67
2022/04/06 05:42:44;;;;;;;24.10;6.88;;;;;;;7.72;100.00;100145.34;5058399;28;20032;-67
2022/04/06 05:45:10;;;;;;;23.77;6.22;;;;;;;7.78;100.00;100150.69;5054274;28;20028;-67
2022/04/06 05:47:36;;;;;;;21.65;6.25;;;;;;;7.73;100.00;100142.72;5060110;28;20383;-66
2022/04/06 05:50:04;;;;;;;23.13;5.90;;;;;;;7.75;100.00;100132.25;5058716;28;20108;-67
2022/04/06 05:52:30;;;;;;;22.73;6.32;;;;;;;7.76;100.00;100144.50;5057215;28;20017;-67
2022/04/06 05:54:55;;;;;;;22.38;5.60;;;;;;;7.77;100.00;100139.25;5053054;28;20503;-67
2022/04/06 05:57:21;;;;;;;22.48;5.70;;;;;;;7.81;100.00;100129.63;5058309;28;20070;-66
2022/04/06 05:59:46;;;;;;;24.73;5.93;;;;;;;7.88;100.00;100144.59;5059714;28;20491;-66
2022/04/06 06:02:12;;;;;;;23.27;5.78;;;;;;;7.83;100.00;100139.31;5058145;28;20063;-66
2022/04/06 06:04:40;;;;;;;22.80;5.45;;;;;;;7.82;100.00;100141.91;5056835;28;20048;-67
2022/04/06 06:07:07;;;;;;;20.45;4.68;;;;;;;7.87;100.00;100137.53;5057708;28;20060;-66
2022/04/06 06:09:33;;;;;;;20.38;4.72;;;;;;;7.91;100.00;100143.72;5056342;28;20353;-67
2022/04/06 06:11:59;;;;;;;19.83;4.32;;;;;;;7.89;100.00;100155.97;5054810;28;20100;-67
2022/04/06 06:14:26;;;;;;;21.25;4.47;;;;;;;7.92;100.00;100154.25;5056707;28;20067;-66
2022/04/06 06:16:52;;;;;;;17.55;4.00;;;;;;;7.97;100.00;100152.50;5055760;28;20068;-67
2022/04/06 06:19:17;;;;;;;18.17;4.05;;;;;;;8.01;100.00;100170.06;5057219;28;20490;-66
2022/04/06 06:21:43;;;;;;;18.75;4.28;;;;;;;8.06;100.00;100156.91;5062218;28;20064;-68
2022/04/06 06:24:09;;;;;;;19.65;3.78;;;;;;;8.08;100.00;100167.44;5034266;28;20430;-67
2022/04/06 06:26:36;;;;;;;16.60;3.72;;;;;;;8.06;100.00;100156.91;5059116;28;20017;-67
2022/04/06 06:29:03;;;;;;;17.42;3.70;;;;;;;8.07;100.00;100152.53;5058544;28;20025;-68
2022/04/06 06:31:28;;;;;;;14.70;3.70;;;;;;;8.12;100.00;100145.53;5058775;28;20467;-68
2022/04/06 06:33:54;;;;;;;17.73;3.97;;;;;;;8.15;100.00;100148.19;5056465;28;20028;-71
2022/04/06 06:36:20;;;;;;;17.40;3.75;;;;;;;8.15;100.00;100145.53;5055153;28;20525;-67
2022/04/06 06:38:45;;;;;;;16.52;3.60;;;;;;;8.20;100.00;100151.72;5057953;28;20115;-67
2022/04/06 06:41:11;;;;;;;14.10;3.42;;;;;;;8.18;100.00;100140.28;5054635;28;20381;-67
2022/04/06 06:43:36;;;;;;;17.08;3.50;;;;;;;8.19;100.00;100142.06;5057551;28;20407;-66
2022/04/06 06:46:01;;;;;;;19.55;3.50;;;;;;;8.17;100.00;100141.19;5057297;28;20035;-67
2022/04/06 06:48:27;;;;;;;16.05;3.13;;;;;;;8.23;100.00;100141.19;5052987;28;20021;-68
2022/04/06 06:50:52;;;;;;;15.05;3.05;;;;;;;8.30;100.00;100134.16;5038486;28;20045;-72
2022/04/06 06:53:17;;;;;;;14.63;3.15;;;;;;;8.30;100.00;100128.91;5054247;28;20040;-71
2022/04/06 06:55:42;;;;;;;16.80;3.42;;;;;;;8.29;100.00;100132.44;5057168;28;20041;-66
2022/04/06 06:58:08;;;;;;;15.45;3.25;;;;;;;8.31;100.00;100131.53;5057871;28;20700;-71
2022/04/06 07:00:33;;;;;;;16.55;3.38;;;;;;;8.34;100.00;100128.03;5055252;28;20408;-77
2022/04/06 07:02:59;;;;;;;16.60;3.13;;;;;;;8.34;100.00;100122.78;5049483;28;20025;-68
2022/04/06 07:05:25;;;;;;;15.70;3.05;;;;;;;8.37;100.00;100131.56;5055192;28;20501;-70
2022/04/06 07:07:58;;;;;;;19.73;3.30;;;;;;;8.38;100.00;100135.94;5057186;28;20375;-68
2022/04/06 07:10:25;;;;;;;18.23;3.10;;;;;;;8.35;100.00;100133.31;5053494;28;20465;-67
2022/04/06 07:12:51;;;;;;;20.27;3.20;;;;;;;8.34;100.00;100134.22;5058403;28;20032;-69
2022/04/06 07:15:17;;;;;;;16.17;3.25;;;;;;;8.33;100.00;100142.97;5051651;28;20357;-71
2022/04/06 07:17:43;;;;;;;18.55;3.47;;;;;;;8.31;100.00;100142.06;5057199;28;20037;-68
2022/04/06 07:20:09;;;;;;;18.70;3.40;;;;;;;8.31;100.00;100134.16;5052733;28;20422;-68
2022/04/06 07:22:35;;;;;;;18.35;4.10;;;;;;;8.31;100.00;100126.28;5052426;28;20024;-67
2022/04/06 07:25:00;;;;;;;19.42;4.40;;;;;;;8.27;100.00;100107.84;5053573;28;20125;-72
2022/04/06 07:27:25;;;;;;;19.48;4.65;;;;;;;8.29;100.00;100116.63;5055913;28;20041;-70
2022/04/06 07:29:53;;;;;;;19.77;4.65;;;;;;;8.32;100.00;100106.97;5048750;28;20024;-67
2022/04/06 07:32:19;;;;;;;22.02;5.25;;;;;;;8.24;100.00;100115.72;5056178;28;20710;-67
2022/04/06 07:34:44;;;;;;;20.73;4.78;;;;;;;8.28;100.00;100099.94;5057116;28;20029;-66
2022/04/06 07:37:09;;;;;;;23.35;5.38;;;;;;;8.19;100.00;100110.47;5053397;28;20025;-72
2022/04/06 07:39:35;;;;;;;20.92;5.28;;;;;;;8.21;100.00;100092.91;5057384;28;20107;-76
2022/04/06 07:42:00;;;;;;;19.90;5.13;;;;;;;8.20;100.00;100083.25;5056018;28;20025;-68
2022/04/06 07:44:25;;;;;;;20.25;5.75;;;;;;;8.25;100.00;100110.47;5058852;28;20044;-67
2022/04/06 07:46:51;;;;;;;21.38;5.55;;;;;;;8.27;100.00;100098.19;5054770;28;20025;-67
2022/04/06 07:49:17;;;;;;;21.23;5.55;;;;;;;8.27;100.00;100094.66;5054446;28;20116;-69
2022/04/06 07:51:43;;;;;;;20.83;5.60;;;;;;;8.38;100.00;100091.16;5051925;28;20052;-67
2022/04/06 07:54:09;;;;;;;22.85;5.75;;;;;;;8.40;100.00;100085.03;5051377;28;20060;-67
2022/04/06 07:56:36;;;;;;;21.08;5.55;;;;;;;8.50;100.00;100097.38;5051653;28;20036;-65
2022/04/06 07:59:02;;;;;;;19.92;5.40;;;;;;;8.67;100.00;100071.91;5057238;28;20485;-65
2022/04/06 08:01:28;;;;;;;20.95;5.47;;;;;;;8.73;100.00;100071.03;5056639;28;20032;-65
2022/04/06 08:03:53;;;;;;;20.20;5.03;;;;;;;8.73;100.00;100092.13;5057495;28;20063;-65
2022/04/06 08:06:19;;;;;;;20.02;5.28;;;;;;;8.79;100.00;100070.16;5057376;28;20031;-66
2022/04/06 08:08:44;;;;;;;18.35;5.38;;;;;;;8.80;100.00;100069.28;5055564;28;20033;-66
2022/04/06 08:11:09;;;;;;;19.13;5.40;;;;;;;8.72;100.00;100064.88;5053248;28;20033;-66
2022/04/06 08:13:35;;;;;;;19.73;4.95;;;;;;;8.67;100.00;100071.91;5051793;28;20033;-66
2022/04/06 08:16:00;;;;;;;20.52;5.03;;;;;;;8.59;100.00;100078.94;5034664;28;20025;-66
2022/04/06 08:18:26;;;;;;;20.70;5.20;;;;;;;8.59;100.00;100093.88;5057042;28;20028;-65
2022/04/06 08:20:52;;;;;;;19.35;4.93;;;;;;;8.54;100.00;100070.16;5057049;28;20016;-66
2022/04/06 08:23:19;;;;;;;19.83;4.82;;;;;;;8.62;100.00;100065.78;5053336;28;20376;-66
2022/04/06 08:25:44;;;;;;;19.80;5.13;;;;;;;8.54;100.00;100083.31;5057591;28;20021;-65
2022/04/06 08:28:10;;;;;;;18.67;4.93;;;;;;;8.51;100.00;100071.03;5051678;28;20028;-66
2022/04/06 08:30:42;;;;;;;19.25;4.75;;;;;;;8.51;100.00;100084.19;5054905;28;20028;-65
2022/04/06 08:33:09;;;;;;;21.17;5.38;;;;;;;8.47;100.00;100081.56;5060224;28;20419;-65
2022/04/06 08:35:35;;;;;;;20.02;5.05;;;;;;;8.47;100.00;100078.94;5059577;28;20056;-65
2022/04/06 08:38:03;;;;;;;20.08;4.70;;;;;;;8.42;100.00;100081.53;5061056;28;20103;-66
2022/04/06 08:40:30;;;;;;;20.23;4.80;;;;;;;8.48;100.00;100076.28;5038615;28;20032;-66
2022/04/06 08:42:56;;;;;;;20.63;4.78;;;;;;;8.54;100.00;100070.16;5059435;28;20044;-67
2022/04/06 08:45:21;;;;;;;22.48;4.75;;;;;;;8.57;100.00;100075.41;5057670;28;20033;-66
2022/04/06 08:47:49;;;;;;;18.67;4.75;;;;;;;8.55;100.00;100082.47;5056895;28;20375;-66
2022/04/06 08:50:17;;;;;;;19.77;5.05;;;;;;;8.65;100.00;100064.88;5055150;28;20100;-66
2022/04/06 08:52:43;;;;;;;18.13;4.72;;;;;;;8.79;100.00;100059.59;5049135;28;20028;-66
2022/04/06 08:55:08;;;;;;;20.58;4.68;;;;;;;8.85;100.00;100064.88;5053585;28;20053;-73
2022/04/06 08:57:34;;;;;;;19.60;4.63;;;;;;;8.87;100.00;100049.94;5036696;28;20044;-75
2022/04/06 08:59:59;;;;;;;20.63;5.07;;;;;;;8.84;100.00;100074.53;5058110;28;20025;-75
2022/04/06 09:02:24;;;;;;;19.63;5.10;;;;;;;8.81;100.00;100052.56;5062870;28;20032;-73
2022/04/06 09:04:54;;;;;;;20.50;5.60;;;;;;;8.76;100.00;100065.75;5056664;28;20009;-70
2022/04/06 09:07:24;;;;;;;22.05;5.60;;;;;;;8.63;100.00;100080.69;5060456;28;20032;-72
2022/04/06 09:09:54;;;;;;;20.48;5.30;;;;;;;8.61;100.00;100078.94;5062222;28;20021;-69
2022/04/06 09:12:22;;;;;;;21.15;5.53;;;;;;;8.63;100.00;100079.81;5059862;28;20021;-68
2022/04/06 09:15:01;;;;;;;18.67;5.15;;;;;;;8.67;100.00;100058.72;5059425;28;20033;-70
2022/04/06 09:17:27;;;;;;;21.27;5.40;;;;;;;8.73;100.00;100065.75;5054791;28;20395;-68
2022/04/06 09:19:53;;;;;;;21.15;5.70;;;;;;;8.66;100.00;100056.97;5056083;28;20021;-70
2022/04/06 09:22:18;;;;;;;18.52;5.43;;;;;;;8.63;100.00;100064.88;5060886;28;20099;-67
2022/04/06 09:24:54;;;;;;;19.55;5.40;;;;;;;8.51;100.00;100056.97;5054591;28;20024;-73
2022/04/06 09:27:19;;;;;;;21.85;5.72;;;;;;;8.50;100.00;100061.38;5051398;28;20029;-66
2022/04/06 09:29:49;;;;;;;21.38;5.60;;;;;;;8.55;100.00;100072.78;5053979;28;20025;-67
2022/04/06 09:32:14;;;;;;;20.63;5.63;;;;;;;8.69;100.00;100059.63;5052009;28;20036;-67
2022/04/06 09:34:41;;;;;;;19.58;5.50;;;;;;;8.72;100.00;100070.16;5035319;28;20430;-73
2022/04/06 09:37:22;;;;;;;20.90;5.47;;;;;;;8.80;100.00;100077.19;5057018;28;20032;-67
2022/04/06 09:39:48;;;;;;;20.98;5.28;;;;;;;8.88;100.00;100054.31;5038188;28;20029;-67
2022/04/06 09:42:21;;;;;;;18.15;5.47;;;;;;;8.92;100.00;100056.06;5053773;28;20032;-66
2022/04/06 09:47:39;;;;;;;19.75;5.00;;;;;;;8.86;100.00;100072.78;5056154;28;20047;-72
2022/04/06 09:50:08;;;;;;;20.67;5.50;;;;;;;8.80;100.00;100062.25;5055112;28;20033;-68
2022/04/06 09:52:35;;;;;;;19.77;5.10;;;;;;;8.85;100.00;100046.41;5057312;28;20032;-69
2022/04/06 09:55:05;;;;;;;19.17;5.43;;;;;;;8.64;100.00;100060.50;5057400;28;20048;-70
2022/04/06 09:57:38;;;;;;;20.85;5.70;;;;;;;8.52;100.00;100064.88;5055532;28;20029;-69
2022/04/06 10:00:04;;;;;;;20.98;5.80;;;;;;;8.61;100.00;100053.47;5058865;28;20040;-70
2022/04/06 10:02:32;;;;;;;21.98;5.93;;;;;;;8.76;100.00;100051.72;5056651;28;20066;-71
2022/04/06 10:05:00;;;;;;;18.92;5.45;;;;;;;8.87;100.00;100063.13;5057488;28;20391;-73
2022/04/06 10:07:25;;;;;;;21.35;5.72;;;;;;;8.75;100.00;100037.63;5058863;28;20507;-68
2022/04/06 10:09:51;;;;;;;19.88;5.55;;;;;;;8.43;100.00;100048.16;5057327;28;20163;-66
2022/04/06 10:12:17;;;;;;;21.33;5.82;;;;;;;8.22;100.00;100044.63;5059530;28;20029;-66
2022/04/06 10:14:44;;;;;;;21.27;6.28;;;;;;;8.14;100.00;100038.47;5059290;28;20052;-67
2022/04/06 10:17:10;;;;;;;21.88;6.32;;;;;;;8.23;100.00;100043.75;5061285;28;20025;-67
2022/04/06 10:19:51;;;;;;;19.88;5.45;;;;;;;8.49;100.00;100032.38;5063703;28;20490;-67
2022/04/06 10:22:28;;;;;;;20.02;5.82;;;;;;;8.54;100.00;100030.63;5065323;28;20031;-72
2022/04/06 10:25:16;;;;;;;21.27;5.90;;;;;;;8.35;100.00;100038.50;5059167;28;20044;-67
2022/04/06 10:27:48;;;;;;;21.00;5.82;;;;;;;8.12;100.00;100042.88;5062628;28;20029;-66
2022/04/06 10:30:17;;;;;;;20.27;6.20;;;;;;;7.98;100.00;100059.50;5064725;28;20481;-70
2022/04/06 10:32:46;;;;;;;19.63;6.00;;;;;;;7.90;100.00;100032.28;5062630;28;20017;-65
2022/04/06 10:35:23;;;;;;;21.02;6.60;;;;;;;7.90;100.00;100024.41;5064161;28;20456;-66
2022/04/06 10:37:49;;;;;;;21.58;6.50;;;;;;;7.92;100.00;100032.28;5057645;28;20024;-66
2022/04/06 10:40:15;;;;;;;20.38;5.95;;;;;;;8.02;100.00;100034.97;5064770;28;20020;-66
2022/04/06 10:42:42;;;;;;;19.80;6.35;;;;;;;8.11;100.00;100033.19;5062606;28;20149;-66
2022/04/06 10:45:26;;;;;;;19.85;6.20;;;;;;;8.06;100.00;100020.03;5062625;28;20486;-66
2022/04/06 10:48:13;;;;;;;21.73;6.45;;;;;;;8.00;100.00;100034.06;5057979;28;20029;-66
2022/04/06 10:50:40;;;;;;;20.70;6.47;;;;;;;7.95;100.00;100022.66;5062575;28;20051;-66
2022/04/06 10:53:26;;;;;;;19.52;6.00;;;;;;;8.05;100.00;100028.81;5063537;28;20032;-66
2022/04/06 10:56:02;;;;;;;20.83;6.10;;;;;;;8.13;100.00;100015.69;5057405;28;20041;-66
2022/04/06 10:58:28;;;;;;;19.70;6.10;;;;;;;8.38;100.00;100021.81;5059416;28;20036;-66
2022/04/06 11:01:16;;;;;;;19.85;5.80;;;;;;;8.57;100.00;100008.69;5064722;28;20375;-66
2022/04/06 11:03:59;;;;;;;17.38;5.13;;;;;;;8.63;100.00;100011.31;5044974;28;20372;-66
2022/04/06 11:07:01;;;;;;;19.10;5.72;;;;;;;8.71;100.00;99993.75;5057847;28;20045;-67
2022/04/06 11:12:17;;;;;;;18.92;5.43;;;;;;;8.87;100.00;100018.31;5061930;28;20506;-67
2022/04/06 11:14:47;;;;;;;18.33;5.65;;;;;;;8.91;100.00;99998.97;5063856;28;20025;-67
2022/04/06 11:17:48;;;;;;;19.17;5.32;;;;;;;8.94;100.00;99998.09;5062085;28;20064;-67
2022/04/06 11:20:18;;;;;;;19.50;5.57;;;;;;;9.05;100.00;99991.03;5063095;28;20082;-67
2022/04/06 11:22:53;;;;;;;19.90;5.55;;;;;;;9.13;100.00;99998.91;5061608;28;20117;-67
2022/04/06 11:25:20;;;;;;;19.35;5.30;;;;;;;9.17;100.00;99984.84;5064187;28;20054;-74
2022/04/06 11:27:46;;;;;;;19.75;5.38;;;;;;;9.21;100.00;99989.22;5061581;28;20025;-74